Time;durP1;ratioP1;P1;durP2;ratioP2;P2;SDS_P1;SDS_P2;PMS_P1;PMS_P2;Temp;Humidity;BMP_temperature;BMP_pressure;BME280_temperature;BME280_humidity;BME280_pressure;Samples;Min_cycle;Max_cycle;Signal;HPM_P1;HPM_P2
2022/12/25 00:01:19;;;;;;;0.45;0.45;;;;;;;9.96;77.03;101438.81;5101009;28;20028;-81
2022/12/25 00:03:45;;;;;;;1.50;1.50;;;;;;;9.98;76.91;101442.31;5100630;28;20039;-81
2022/12/25 00:06:11;;;;;;;0.10;0.10;;;;;;;10.00;76.70;101445.81;5109886;28;20036;-81
2022/12/25 00:08:39;;;;;;;0.60;0.60;;;;;;;9.98;76.94;101437.03;5110263;28;20039;-80
2022/12/25 00:11:10;;;;;;;0.25;0.25;;;;;;;10.00;77.03;101447.59;5103646;28;20103;-81
2022/12/25 00:13:37;;;;;;;0.37;0.37;;;;;;;9.97;77.01;101440.56;5101776;28;20024;-81
2022/12/25 00:16:07;;;;;;;0.45;0.45;;;;;;;9.96;77.06;101441.44;5100936;28;20296;-81
2022/12/25 00:18:34;;;;;;;0.17;0.17;;;;;;;9.96;77.20;101440.59;5100761;28;20091;-81
2022/12/25 00:21:04;;;;;;;0.50;0.50;;;;;;;10.01;76.80;101434.34;5100728;28;20081;-81
2022/12/25 00:23:31;;;;;;;0.40;0.40;;;;;;;10.01;77.05;101441.44;5101540;28;20039;-81
2022/12/25 00:25:57;;;;;;;0.38;0.38;;;;;;;10.02;77.21;101436.09;5100724;28;20024;-81
2022/12/25 00:28:24;;;;;;;0.40;0.40;;;;;;;10.04;77.25;101429.03;5099710;28;20390;-80
2022/12/25 00:30:51;;;;;;;0.10;0.10;;;;;;;10.11;76.88;101426.34;5099275;28;20035;-81
2022/12/25 00:33:17;;;;;;;0.50;0.50;;;;;;;10.10;77.05;101435.16;5100250;28;20051;-81
2022/12/25 00:35:43;;;;;;;0.20;0.20;;;;;;;10.13;76.98;101435.13;5098941;28;20039;-81
2022/12/25 00:38:09;;;;;;;1.40;1.30;;;;;;;10.16;76.92;101440.41;5098794;28;20059;-81
2022/12/25 00:40:43;;;;;;;0.10;0.10;;;;;;;10.22;76.59;101440.38;5099709;28;20035;-81
2022/12/25 00:43:09;;;;;;;0.28;0.28;;;;;;;10.20;76.84;101431.53;5099553;28;20036;-81
2022/12/25 00:45:36;;;;;;;3.20;0.75;;;;;;;10.20;77.00;101440.38;5098882;28;20063;-81
2022/12/25 00:48:02;;;;;;;3.28;3.08;;;;;;;10.23;76.71;101447.41;5098896;28;20043;-81
2022/12/25 00:50:28;;;;;;;0.10;0.10;;;;;;;10.24;76.50;101454.44;5102531;28;20042;-81
2022/12/25 00:52:54;;;;;;;0.20;0.20;;;;;;;10.25;76.86;101442.97;5109871;28;20055;-81
2022/12/25 00:55:20;;;;;;;0.20;0.20;;;;;;;10.28;77.04;101442.06;5104158;28;20028;-81
2022/12/25 00:57:46;;;;;;;0.47;0.47;;;;;;;10.30;76.90;101438.50;5100102;28;20028;-81
2022/12/25 01:00:13;;;;;;;0.17;0.17;;;;;;;10.33;76.44;101438.50;5098481;28;20028;-81
2022/12/25 01:02:39;;;;;;;0.20;0.20;;;;;;;10.35;76.47;101441.13;5098935;28;20494;-81
2022/12/25 01:05:06;;;;;;;0.20;0.20;;;;;;;10.36;76.86;101458.81;5098238;28;20036;-81
2022/12/25 01:07:33;;;;;;;0.10;0.10;;;;;;;10.40;76.58;101455.22;5099498;28;20020;-81
2022/12/25 01:10:30;;;;;;;0.68;0.68;;;;;;;10.44;76.70;101456.06;5098389;28;20054;-81
2022/12/25 01:12:45;;;;;;;0.10;0.10;;;;;;;10.51;76.39;101463.94;5098632;28;20032;-81
2022/12/25 01:15:12;;;;;;;0.10;0.10;;;;;;;10.53;76.39;101466.59;5106431;28;20032;-81
2022/12/25 01:17:38;;;;;;;0.10;0.10;;;;;;;10.56;76.29;101461.25;5107951;28;20028;-81
2022/12/25 01:20:06;;;;;;;0.20;0.20;;;;;;;10.58;75.94;101470.09;5098990;28;20034;-81
2022/12/25 01:22:32;;;;;;;0.20;0.20;;;;;;;10.60;75.77;101465.63;5098754;28;20031;-81
2022/12/25 01:24:59;;;;;;;0.10;0.10;;;;;;;10.61;76.32;101462.09;5099168;28;20091;-81
2022/12/25 01:27:25;;;;;;;0.10;0.10;;;;;;;10.63;76.38;101462.06;5099060;28;20497;-81
2022/12/25 01:29:51;;;;;;;0.10;0.10;;;;;;;10.63;76.34;101446.16;5099808;28;20032;-81
2022/12/25 01:32:17;;;;;;;1.45;1.15;;;;;;;10.63;76.14;101436.47;5103416;28;20021;-81
2022/12/25 01:34:43;;;;;;;0.20;0.20;;;;;;;10.60;76.04;101425.88;5099438;28;20390;-81
2022/12/25 01:37:10;;;;;;;0.73;0.28;;;;;;;10.57;75.69;101430.34;5099185;28;20035;-81
2022/12/25 01:39:36;;;;;;;0.15;0.15;;;;;;;10.51;75.93;101436.59;5097884;28;20490;-81
2022/12/25 01:42:02;;;;;;;0.20;0.20;;;;;;;10.45;76.08;101440.16;5099002;28;20047;-81
2022/12/25 01:47:14;;;;;;;0.10;0.10;;;;;;;10.35;75.73;101455.25;5137549;27;20377;-80
2022/12/25 01:49:43;;;;;;;0.50;0.50;;;;;;;10.36;75.43;101454.38;5136363;27;20069;-80
2022/12/25 01:52:14;;;;;;;0.20;0.20;;;;;;;10.37;75.58;101449.97;5136994;27;20034;-80
2022/12/25 01:54:47;;;;;;;0.40;0.40;;;;;;;10.33;75.67;101443.78;5137007;27;20031;-80
2022/12/25 01:57:20;;;;;;;0.10;0.10;;;;;;;10.31;75.50;101450.84;5138111;27;20438;-80
2022/12/25 01:59:47;;;;;;;0.10;0.10;;;;;;;10.25;75.67;101448.25;5139320;27;20028;-80
2022/12/25 02:02:14;;;;;;;0.32;0.32;;;;;;;10.25;75.47;101456.22;5139054;28;20023;-79
2022/12/25 02:04:46;;;;;;;0.25;0.25;;;;;;;10.23;75.71;101454.47;5137484;27;20100;-79
2022/12/25 02:07:17;;;;;;;0.20;0.20;;;;;;;10.22;75.64;101452.72;5136556;27;20465;-80
2022/12/25 02:09:44;;;;;;;0.17;0.17;;;;;;;10.21;75.64;101451.84;5139612;27;20050;-79
2022/12/25 02:12:18;;;;;;;0.10;0.10;;;;;;;10.24;75.62;101443.84;5142791;27;20093;-79
2022/12/25 02:14:46;;;;;;;0.28;0.28;;;;;;;10.24;75.71;101443.84;5137046;27;20035;-79
2022/12/25 02:20:26;;;;;;;0.10;0.10;;;;;;;10.33;75.49;101449.09;5122499;27;1197797;-79
2022/12/25 02:29:16;;;;;;;0.10;0.10;;;;;;;10.20;75.96;101442.13;5125182;27;1196959;-80
2022/12/25 02:32:10;;;;;;;0.10;0.10;;;;;;;10.16;76.12;101443.94;5137979;27;20031;-80
2022/12/25 02:37:28;;;;;;;0.30;0.30;;;;;;;10.18;76.34;101433.31;5076230;28;20718;-80
2022/12/25 03:07:42;;;;;;;0.10;0.10;;;;;;;10.46;76.68;101380.13;5116052;28;20040;-81
2022/12/25 03:13:21;;;;;;;1.65;1.55;;;;;;;10.53;76.61;101376.50;5116849;28;20421;-81
2022/12/25 03:18:35;;;;;;;0.68;0.68;;;;;;;10.47;76.49;101382.75;5115449;28;20036;-79
2022/12/25 03:26:53;;;;;;;0.20;0.20;;;;;;;10.49;76.79;101375.66;5116110;28;20036;-80
2022/12/25 03:26:54;;;;;;;0.10;0.10;;;;;;;10.52;76.62;101380.91;5115909;28;20066;-80
2022/12/25 03:32:35;;;;;;;0.22;0.22;;;;;;;10.64;76.63;101373.72;5124789;28;20115;-80
2022/12/25 04:36:19;;;;;;;1.20;1.10;;;;;;;10.46;76.09;101369.53;5136696;27;20031;-80
2022/12/25 04:38:45;;;;;;;0.13;0.13;;;;;;;10.44;76.57;101366.00;5136570;28;20374;-80
2022/12/25 04:41:13;;;;;;;0.13;0.13;;;;;;;10.43;76.52;101364.25;5137173;27;20039;-80
2022/12/25 04:43:40;;;;;;;0.45;0.45;;;;;;;10.42;76.70;101363.38;5140111;28;20047;-79
2022/12/25 04:46:06;;;;;;;0.28;0.28;;;;;;;10.45;76.52;101365.13;5147453;27;20385;-80
2022/12/25 04:48:34;;;;;;;0.13;0.13;;;;;;;10.46;76.48;101358.94;5145086;27;20035;-78
2022/12/25 04:51:19;;;;;;;0.20;0.20;;;;;;;10.49;76.82;101348.28;5147020;27;20057;-79
2022/12/25 04:53:46;;;;;;;0.20;0.20;;;;;;;10.44;76.47;101350.09;5129790;27;20122;-80
2022/12/25 04:56:13;;;;;;;0.20;0.20;;;;;;;10.45;76.41;101347.44;5123864;28;20708;-80
2022/12/25 04:58:39;;;;;;;3.60;1.50;;;;;;;10.45;76.85;101346.56;5122533;28;20023;-79
2022/12/25 05:01:06;;;;;;;0.20;0.20;;;;;;;10.46;76.85;101343.03;5122448;28;20026;-79
2022/12/25 05:03:33;;;;;;;0.20;0.20;;;;;;;10.43;76.86;101332.47;5122487;28;20034;-79
2022/12/25 05:06:00;;;;;;;0.10;0.10;;;;;;;10.41;77.02;101329.84;5122554;28;20104;-79
2022/12/25 05:08:28;;;;;;;0.10;0.10;;;;;;;10.42;76.61;101315.69;5122876;28;20024;-79
2022/12/25 05:10:55;;;;;;;0.10;0.10;;;;;;;10.41;77.02;101323.66;5121985;28;20047;-80
2022/12/25 05:13:21;;;;;;;0.40;0.40;;;;;;;10.38;76.77;101329.88;5121774;28;20036;-80
2022/12/25 05:15:47;;;;;;;0.20;0.20;;;;;;;10.36;77.07;101321.94;5122146;28;20027;-79
2022/12/25 05:18:13;;;;;;;0.20;0.20;;;;;;;10.36;76.93;101321.94;5122498;28;20038;-79
2022/12/25 05:20:39;;;;;;;0.20;0.20;;;;;;;10.36;76.64;101329.00;5121479;28;20031;-79
2022/12/25 05:23:05;;;;;;;0.10;0.10;;;;;;;10.33;76.58;101331.66;5121293;28;20031;-79
2022/12/25 05:25:31;;;;;;;0.10;0.10;;;;;;;10.31;76.96;101336.09;5121592;28;20379;-79
2022/12/25 05:27:57;;;;;;;0.10;0.10;;;;;;;10.29;77.00;101325.53;5121669;28;20081;-79
2022/12/25 05:30:24;;;;;;;0.17;0.17;;;;;;;10.30;76.85;101321.97;5121431;28;20035;-80
2022/12/25 05:32:50;;;;;;;0.10;0.10;;;;;;;10.28;77.24;101315.81;5121924;28;20039;-79
2022/12/25 05:35:16;;;;;;;0.52;0.52;;;;;;;10.30;76.73;101321.97;5121242;28;20031;-79
2022/12/25 05:37:42;;;;;;;0.50;0.50;;;;;;;10.32;76.37;101321.97;5121233;28;20027;-79
2022/12/25 05:40:09;;;;;;;0.20;0.20;;;;;;;10.35;76.52;101329.88;5120732;28;20035;-79
2022/12/25 05:42:35;;;;;;;0.10;0.10;;;;;;;10.35;76.49;101333.41;5121288;28;20147;-79
2022/12/25 05:45:01;;;;;;;0.10;0.10;;;;;;;10.34;76.47;101344.91;5122187;28;20035;-79
2022/12/25 05:47:27;;;;;;;0.25;0.25;;;;;;;10.36;76.49;101348.41;5121053;28;20019;-79
2022/12/25 05:49:53;;;;;;;0.32;0.32;;;;;;;10.40;76.62;101333.38;5120795;28;20027;-79
2022/12/25 05:52:19;;;;;;;0.20;0.20;;;;;;;10.45;76.38;101335.97;5121512;28;20386;-79
2022/12/25 05:54:45;;;;;;;0.20;0.20;;;;;;;10.47;76.39;101324.47;5124992;28;20039;-79
2022/12/25 05:57:11;;;;;;;0.20;0.20;;;;;;;10.53;76.40;101328.81;5124889;28;20032;-79
2022/12/25 05:59:37;;;;;;;0.10;0.10;;;;;;;10.55;76.42;101327.00;5120912;28;20469;-79
2022/12/25 06:02:03;;;;;;;0.10;0.10;;;;;;;10.57;76.35;101313.78;5121702;28;20089;-79
2022/12/25 06:04:29;;;;;;;0.20;0.20;;;;;;;10.59;76.71;101314.59;5120616;28;20046;-79
2022/12/25 06:06:55;;;;;;;0.20;0.20;;;;;;;10.62;76.45;101314.59;5122329;28;20020;-80
2022/12/25 06:09:21;;;;;;;0.10;0.10;;;;;;;10.62;76.66;101307.50;5121944;28;20054;-80
2022/12/25 06:11:48;;;;;;;0.55;0.55;;;;;;;10.63;76.57;101309.25;5125341;28;20023;-79
2022/12/25 06:14:15;;;;;;;0.10;0.10;;;;;;;10.70;76.71;101309.19;5127259;28;20151;-80
2022/12/25 06:16:41;;;;;;;0.20;0.20;;;;;;;10.71;76.49;101295.03;5124589;28;20028;-80
2022/12/25 06:19:08;;;;;;;0.50;0.50;;;;;;;10.74;76.72;101294.97;5122142;28;20451;-80
2022/12/25 06:21:34;;;;;;;0.10;0.10;;;;;;;10.77;76.20;101300.25;5121732;28;20544;-80
2022/12/25 06:24:00;;;;;;;0.20;0.20;;;;;;;10.75;76.40;101286.13;5121542;28;20116;-80
2022/12/25 06:26:27;;;;;;;0.15;0.15;;;;;;;10.79;76.55;101278.13;5121898;28;20040;-80
2022/12/25 06:28:53;;;;;;;0.40;0.40;;;;;;;10.81;76.13;101280.75;5120436;28;20439;-80
2022/12/25 06:31:22;;;;;;;0.10;0.10;;;;;;;10.82;76.38;101274.56;5121317;28;20096;-80
2022/12/25 06:33:49;;;;;;;0.10;0.10;;;;;;;10.83;76.29;101278.97;5121348;28;20369;-80
2022/12/25 06:36:19;;;;;;;0.10;0.10;;;;;;;10.84;76.60;101283.34;5120401;28;20042;-80
2022/12/25 06:38:46;;;;;;;0.20;0.20;;;;;;;10.88;76.67;101282.44;5120733;28;20036;-80
2022/12/25 06:41:15;;;;;;;0.10;0.10;;;;;;;10.92;76.42;101278.81;5120538;28;20039;-80
2022/12/25 06:43:41;;;;;;;0.13;0.13;;;;;;;10.93;76.52;101267.31;5119958;28;20031;-80
2022/12/25 06:46:10;;;;;;;0.10;0.10;;;;;;;10.97;76.26;101269.03;5120645;28;20114;-80
2022/12/25 06:48:39;;;;;;;0.15;0.15;;;;;;;10.99;76.84;101261.94;5120038;28;20024;-80
2022/12/25 06:51:05;;;;;;;0.10;0.10;;;;;;;11.03;76.80;101264.53;5119659;28;20020;-80
2022/12/25 06:53:32;;;;;;;1.00;1.00;;;;;;;11.07;76.77;101264.47;5119633;28;20032;-80
2022/12/25 06:56:09;;;;;;;0.05;0.05;;;;;;;11.11;76.09;101257.34;5120643;28;20019;-79
2022/12/25 06:58:35;;;;;;;0.10;0.10;;;;;;;11.09;76.58;101253.81;5120429;28;20031;-80
2022/12/25 07:01:13;;;;;;;0.20;0.20;;;;;;;11.11;76.52;101247.59;5120471;28;20431;-80
2022/12/25 07:03:42;;;;;;;0.20;0.20;;;;;;;11.10;76.84;101245.88;5125578;28;20261;-80
2022/12/25 07:06:08;;;;;;;0.10;0.10;;;;;;;11.16;76.20;101248.44;5129803;28;20023;-80
2022/12/25 07:08:34;;;;;;;0.20;0.20;;;;;;;11.22;76.08;101257.19;5123576;28;20123;-80
2022/12/25 07:11:00;;;;;;;0.17;0.17;;;;;;;11.22;75.60;101252.72;5121271;28;20027;-80
2022/12/25 07:13:26;;;;;;;1.27;1.17;;;;;;;11.24;76.01;101250.94;5121649;28;20034;-80
2022/12/25 07:15:58;;;;;;;0.10;0.10;;;;;;;11.28;75.48;101249.97;5120280;28;20031;-80
2022/12/25 07:18:25;;;;;;;0.68;0.68;;;;;;;11.27;75.88;101261.50;5120655;28;20396;-80
2022/12/25 07:20:51;;;;;;;0.20;0.20;;;;;;;11.24;75.48;101258.91;5120115;28;20577;-80
2022/12/25 07:23:17;;;;;;;0.40;0.40;;;;;;;11.21;75.71;101260.72;5121842;28;20051;-80
2022/12/25 07:25:51;;;;;;;0.10;0.10;;;;;;;11.20;76.22;101267.78;5126331;28;20035;-80
2022/12/25 07:28:17;;;;;;;0.43;0.43;;;;;;;11.27;75.98;101258.84;5127904;28;20024;-80
2022/12/25 07:30:43;;;;;;;0.17;0.17;;;;;;;11.29;75.75;101267.66;5126307;28;20028;-80
2022/12/25 07:33:09;;;;;;;0.17;0.17;;;;;;;11.26;75.90;101273.00;5120905;28;20059;-80
2022/12/25 07:35:36;;;;;;;0.20;0.20;;;;;;;11.26;75.82;101273.00;5119779;28;20080;-80
2022/12/25 07:38:02;;;;;;;0.10;0.10;;;;;;;11.28;76.36;101284.47;5120390;28;20028;-80
2022/12/25 07:40:28;;;;;;;0.10;0.10;;;;;;;11.30;75.61;101282.69;5119477;28;20031;-80
2022/12/25 07:42:54;;;;;;;0.10;0.10;;;;;;;11.30;75.82;101280.03;5120430;28;20031;-80
2022/12/25 07:45:20;;;;;;;0.10;0.10;;;;;;;11.30;75.79;101285.34;5121342;28;20035;-80
2022/12/25 07:47:46;;;;;;;0.10;0.10;;;;;;;11.30;75.80;101285.34;5121326;28;20027;-80
2022/12/25 07:50:12;;;;;;;0.35;0.35;;;;;;;11.33;76.14;101282.63;5119014;28;20613;-80
2022/12/25 07:52:38;;;;;;;0.10;0.10;;;;;;;11.33;75.45;101290.56;5120238;28;20038;-80
2022/12/25 07:55:04;;;;;;;0.95;0.73;;;;;;;11.35;76.22;101297.63;5119788;28;20028;-80
2022/12/25 07:57:31;;;;;;;0.10;0.10;;;;;;;11.34;76.02;101294.13;5119994;28;20036;-80
2022/12/25 07:59:57;;;;;;;0.10;0.10;;;;;;;11.33;75.88;101295.00;5119224;28;20027;-80
2022/12/25 08:02:27;;;;;;;0.20;0.20;;;;;;;11.34;75.56;101296.78;5119883;28;20520;-80
2022/12/25 08:04:54;;;;;;;0.10;0.10;;;;;;;11.39;76.02;101301.97;5118888;28;20410;-80
2022/12/25 08:07:20;;;;;;;0.20;0.20;;;;;;;11.41;75.82;101302.84;5119186;28;20133;-80
2022/12/25 08:09:46;;;;;;;0.38;0.38;;;;;;;11.42;75.75;101304.59;5118769;28;20445;-80
2022/12/25 08:12:12;;;;;;;0.10;0.10;;;;;;;11.43;76.04;101306.34;5120157;28;20039;-80
2022/12/25 08:14:38;;;;;;;0.10;0.10;;;;;;;11.43;75.62;101303.72;5129724;28;20110;-80
2022/12/25 08:17:05;;;;;;;0.10;0.10;;;;;;;11.40;75.56;101311.69;5127665;28;20035;-80
2022/12/25 08:19:31;;;;;;;0.10;0.10;;;;;;;11.39;75.68;101310.84;5121401;28;20400;-80
2022/12/25 08:21:57;;;;;;;0.10;0.10;;;;;;;11.43;74.99;101299.25;5120632;28;20024;-80
2022/12/25 08:24:23;;;;;;;0.20;0.20;;;;;;;11.46;74.89;101295.69;5120141;28;20032;-80
2022/12/25 08:26:49;;;;;;;0.10;0.10;;;;;;;11.47;75.05;101308.06;5119698;28;20036;-80
2022/12/25 08:29:15;;;;;;;0.10;0.10;;;;;;;11.48;75.11;101301.84;5121005;28;20049;-80
2022/12/25 08:31:43;;;;;;;0.10;0.10;;;;;;;11.49;74.83;101293.84;5123342;28;20254;-80
2022/12/25 08:34:10;;;;;;;0.52;0.52;;;;;;;11.48;74.96;101281.50;5123001;28;20030;-80
2022/12/25 08:36:36;;;;;;;0.10;0.10;;;;;;;11.50;74.94;101276.16;5123027;28;20023;-80
2022/12/25 08:39:03;;;;;;;0.10;0.10;;;;;;;11.51;75.25;101288.50;5121930;28;20024;-80
2022/12/25 08:41:30;;;;;;;0.10;0.10;;;;;;;11.51;74.92;101280.56;5121983;28;20114;-80
2022/12/25 08:43:56;;;;;;;0.20;0.20;;;;;;;11.52;75.06;101277.00;5122409;28;20032;-80
2022/12/25 08:46:22;;;;;;;0.30;0.30;;;;;;;11.55;75.02;101295.53;5122441;28;20030;-80
2022/12/25 08:48:49;;;;;;;0.17;0.17;;;;;;;11.55;75.41;101289.34;5129429;28;20032;-79
2022/12/25 08:51:18;;;;;;;0.47;0.47;;;;;;;11.58;74.99;101292.81;5129986;28;20106;-80
2022/12/25 08:53:46;;;;;;;0.32;0.32;;;;;;;11.58;74.99;101289.31;5125065;28;20038;-80
2022/12/25 08:56:13;;;;;;;0.55;0.52;;;;;;;11.57;74.59;101288.41;5123834;28;20035;-80
2022/12/25 08:58:40;;;;;;;0.22;0.22;;;;;;;11.57;75.26;101291.06;5122226;28;20027;-80
2022/12/25 09:01:07;;;;;;;0.10;0.10;;;;;;;11.58;75.15;101298.13;5122770;28;20504;-80
2022/12/25 09:03:34;;;;;;;0.63;0.63;;;;;;;11.57;74.72;101298.16;5123928;28;20023;-80
2022/12/25 09:06:04;;;;;;;0.10;0.10;;;;;;;11.58;74.85;101298.13;5105268;28;20023;-80
2022/12/25 09:08:31;;;;;;;0.10;0.10;;;;;;;11.56;74.51;101293.75;5123302;28;20392;-80
2022/12/25 09:11:02;;;;;;;0.75;0.75;;;;;;;11.49;75.28;101312.44;5121937;28;20024;-80
2022/12/25 09:13:28;;;;;;;0.10;0.10;;;;;;;11.44;75.12;101308.09;5122834;28;20195;-80
2022/12/25 09:15:54;;;;;;;0.17;0.17;;;;;;;11.42;75.05;101309.91;5103443;28;20138;-80
2022/12/25 09:18:21;;;;;;;0.10;0.10;;;;;;;11.46;75.44;101322.22;5121542;28;20031;-80
2022/12/25 09:20:55;;;;;;;0.10;0.10;;;;;;;11.46;75.62;101324.88;5122533;28;20073;-80
2022/12/25 09:23:22;;;;;;;0.10;0.10;;;;;;;11.48;75.43;101325.72;5124323;28;20031;-80
2022/12/25 09:25:48;;;;;;;18.40;2.00;;;;;;;11.48;75.46;101334.56;5128219;28;20047;-79
2022/12/25 09:28:14;;;;;;;0.10;0.10;;;;;;;11.47;75.17;101318.66;5133288;28;20035;-79
2022/12/25 09:30:40;;;;;;;0.10;0.10;;;;;;;11.45;75.49;101316.03;5129797;28;20079;-80
2022/12/25 09:33:06;;;;;;;0.10;0.10;;;;;;;11.44;75.17;101314.28;5125968;28;20036;-81
2022/12/25 09:35:32;;;;;;;0.10;0.10;;;;;;;11.45;74.94;101315.16;5124647;28;20030;-80
2022/12/25 09:37:58;;;;;;;0.15;0.15;;;;;;;11.43;75.21;101314.31;5123216;28;20035;-81
2022/12/25 09:40:28;;;;;;;0.20;0.20;;;;;;;11.42;75.23;101317.88;5121187;28;20024;-81
2022/12/25 09:42:55;;;;;;;0.20;0.20;;;;;;;11.38;75.54;101292.31;5122878;28;20023;-80
2022/12/25 09:45:28;;;;;;;0.15;0.15;;;;;;;11.41;75.73;101289.56;5123558;28;20063;-81
2022/12/25 09:47:56;;;;;;;0.10;0.10;;;;;;;11.41;75.78;101297.53;5122804;28;20051;-81
2022/12/25 09:50:44;;;;;;;0.10;0.10;;;;;;;11.47;75.59;101308.06;5121529;28;20047;-81
2022/12/25 09:53:32;;;;;;;0.40;0.40;;;;;;;11.48;75.43;101293.88;5122306;28;20031;-81
2022/12/25 09:56:11;;;;;;;0.80;0.80;;;;;;;11.43;75.29;101285.13;5122263;28;20016;-80
2022/12/25 09:58:37;;;;;;;0.35;0.35;;;;;;;11.36;75.92;101280.81;5120902;28;20107;-80
2022/12/25 10:01:18;;;;;;;0.10;0.10;;;;;;;11.39;75.45;101279.00;5121223;28;20039;-80
2022/12/25 10:07:04;;;;;;;0.52;0.52;;;;;;;11.41;75.52;101281.63;5117665;27;20139;-81
2022/12/25 10:12:34;;;;;;;0.10;0.10;;;;;;;11.36;75.57;101262.25;5124387;27;20475;-80
2022/12/25 10:20:44;;;;;;;0.20;0.20;;;;;;;11.38;75.84;101265.78;5121527;27;1251694;-80
2022/12/25 10:23:17;;;;;;;0.10;0.10;;;;;;;11.35;75.87;101247.22;5137381;27;20039;-80
2022/12/25 10:25:45;;;;;;;0.10;0.10;;;;;;;11.33;75.78;101248.13;5131026;27;20035;-80
2022/12/25 10:28:14;;;;;;;0.10;0.10;;;;;;;11.34;75.86;101249.03;5117180;28;20050;-80
2022/12/25 10:30:43;;;;;;;0.32;0.32;;;;;;;11.35;75.95;101233.97;5115989;28;20024;-80
2022/12/25 10:33:13;;;;;;;0.10;0.10;;;;;;;11.37;75.85;101242.78;5119231;28;20043;-80
2022/12/25 10:35:40;;;;;;;0.38;0.38;;;;;;;11.36;76.11;101243.69;5126477;28;20039;-80
2022/12/25 10:38:14;;;;;;;0.10;0.10;;;;;;;11.38;75.63;101234.78;5122048;28;20062;-80
2022/12/25 10:41:12;;;;;;;0.10;0.10;;;;;;;11.44;75.67;101231.13;5117036;28;20024;-80
2022/12/25 10:43:44;;;;;;;0.10;0.10;;;;;;;11.38;76.25;101218.88;5116433;28;20048;-80
2022/12/25 10:46:12;;;;;;;0.20;0.20;;;;;;;11.39;75.50;101219.72;5116083;28;20030;-80
2022/12/25 10:48:44;;;;;;;0.10;0.10;;;;;;;11.40;75.89;101229.44;5115613;28;20069;-80
2022/12/25 10:51:10;;;;;;;0.20;0.20;;;;;;;11.43;75.74;101226.75;5116297;28;20036;-80
2022/12/25 10:53:41;;;;;;;1.02;1.02;;;;;;;11.49;76.27;101221.34;5116318;28;20052;-80
2022/12/25 10:56:16;;;;;;;0.10;0.10;;;;;;;11.54;76.14;101215.94;5115312;28;20032;-80
2022/12/25 10:58:42;;;;;;;0.10;0.10;;;;;;;11.53;75.79;101211.56;5115702;28;20039;-80
2022/12/25 11:01:09;;;;;;;0.10;0.10;;;;;;;11.54;75.71;101192.94;5116689;28;20034;-80
2022/12/25 11:03:40;;;;;;;0.10;0.10;;;;;;;11.56;76.34;101191.13;5115470;28;20027;-80
2022/12/25 11:06:19;;;;;;;0.30;0.30;;;;;;;11.57;76.42;101187.56;5114628;28;20051;-80
2022/12/25 11:08:54;;;;;;;0.10;0.10;;;;;;;11.62;75.81;101185.69;5114683;28;20024;-80
2022/12/25 11:11:20;;;;;;;0.13;0.13;;;;;;;11.59;76.24;101188.44;5115754;28;20089;-80
2022/12/25 11:13:51;;;;;;;0.45;0.45;;;;;;;11.61;76.39;101177.78;5114800;28;20034;-81
2022/12/25 11:16:38;;;;;;;0.20;0.20;;;;;;;11.66;76.06;101165.28;5115223;28;20024;-80
2022/12/25 11:19:24;;;;;;;0.10;0.10;;;;;;;11.68;75.63;101167.94;5114996;28;20082;-80
2022/12/25 11:21:53;;;;;;;0.10;0.10;;;;;;;11.68;76.46;101160.84;5127201;28;20031;-80
2022/12/25 11:24:23;;;;;;;0.10;0.10;;;;;;;11.72;75.95;101154.53;5126995;28;20024;-80
2022/12/25 11:26:52;;;;;;;0.10;0.10;;;;;;;11.74;75.74;101157.16;5130148;28;20028;-80
2022/12/25 11:31:57;;;;;;;0.43;0.43;;;;;;;11.74;76.02;101163.38;5119507;27;1161696;-82
2022/12/25 11:37:20;;;;;;;0.17;0.17;;;;;;;11.75;76.16;101153.59;5126297;27;20772;-80
2022/12/25 11:39:46;;;;;;;0.22;0.22;;;;;;;11.74;76.14;101157.16;5118642;28;20081;-80
2022/12/25 11:45:10;;;;;;;0.10;0.10;;;;;;;11.78;76.23;101148.25;5087080;28;20367;-81
2022/12/25 11:50:30;;;;;;;0.75;0.75;;;;;;;11.81;76.47;101159.69;5077261;28;20934;-80
2022/12/25 11:53:01;;;;;;;0.40;0.40;;;;;;;11.82;76.61;101144.63;5077102;28;20036;-80
2022/12/25 11:55:41;;;;;;;0.10;0.10;;;;;;;11.87;76.15;101137.44;5075960;28;20028;-80
2022/12/25 11:58:19;;;;;;;0.10;0.10;;;;;;;11.82;76.22;101123.38;5075874;28;20071;-81
2022/12/25 12:00:49;;;;;;;0.20;0.20;;;;;;;11.81;76.51;101113.66;5074767;28;20036;-80
2022/12/25 12:03:23;;;;;;;0.35;0.35;;;;;;;11.84;76.00;101110.97;5074876;28;20029;-80
2022/12/25 12:06:01;;;;;;;0.10;0.10;;;;;;;11.87;75.83;101107.38;5074499;28;20025;-80
2022/12/25 12:08:27;;;;;;;0.20;0.20;;;;;;;11.88;76.27;101112.63;5074480;28;20029;-80
2022/12/25 12:13:58;;;;;;;0.63;0.63;;;;;;;11.93;75.68;101086.84;5090554;27;20380;-81
2022/12/25 12:16:24;;;;;;;0.15;0.15;;;;;;;11.91;75.90;101087.81;5090788;28;20046;-81
2022/12/25 12:18:50;;;;;;;0.98;0.98;;;;;;;11.89;75.37;101093.16;5089593;28;20028;-81
2022/12/25 12:26:36;;;;;;;0.20;0.20;;;;;;;11.83;75.92;101103.91;5074091;28;20157;-80
2022/12/25 12:29:05;;;;;;;0.73;0.73;;;;;;;11.84;75.55;101095.03;5074867;28;20548;-80
2022/12/25 12:31:42;;;;;;;0.20;0.20;;;;;;;11.85;75.50;101098.53;5074368;28;20119;-80
2022/12/25 12:34:22;;;;;;;0.30;0.30;;;;;;;11.87;75.68;101100.25;5073781;28;20058;-80
2022/12/25 12:36:51;;;;;;;0.10;0.10;;;;;;;11.81;75.90;101090.66;5073799;28;20067;-81
2022/12/25 12:39:25;;;;;;;0.10;0.10;;;;;;;11.81;76.05;101095.09;5073532;28;20025;-80
2022/12/25 12:41:51;;;;;;;0.20;0.20;;;;;;;11.77;75.85;101093.41;5073512;28;20035;-80
2022/12/25 12:44:19;;;;;;;0.15;0.15;;;;;;;11.77;75.27;101086.31;5072671;28;20129;-80
2022/12/25 12:46:55;;;;;;;0.20;0.20;;;;;;;11.81;75.99;101084.47;5073307;28;20083;-80
2022/12/25 12:49:26;;;;;;;0.20;0.20;;;;;;;11.78;75.74;101087.19;5079478;28;20546;-80
2022/12/25 12:52:32;;;;;;;0.10;0.10;;;;;;;11.82;75.75;101078.25;5090212;28;20024;-80
2022/12/25 12:57:38;;;;;;;0.85;0.85;;;;;;;11.66;76.34;101064.44;5099800;27;1960046;-80
2022/12/25 13:03:30;;;;;;;0.10;0.10;;;;;;;11.78;75.86;101052.69;5112613;27;20384;-80
2022/12/25 13:06:08;;;;;;;0.10;0.10;;;;;;;11.77;75.73;101051.78;5112209;28;20067;-80
2022/12/25 13:08:57;;;;;;;0.10;0.10;;;;;;;11.77;76.15;101046.47;5110564;28;20035;-79
2022/12/25 13:11:30;;;;;;;0.10;0.10;;;;;;;11.75;75.66;101040.34;5110311;28;20019;-80
2022/12/25 13:13:59;;;;;;;0.10;0.10;;;;;;;11.67;75.92;101042.28;5109883;28;20032;-80
2022/12/25 13:19:13;;;;;;;0.15;0.15;;;;;;;11.61;75.74;101027.38;5116115;27;1208412;-80
2022/12/25 13:21:39;;;;;;;0.35;0.35;;;;;;;11.56;75.88;101023.94;5130623;27;20061;-80
2022/12/25 13:24:17;;;;;;;0.10;0.10;;;;;;;11.54;75.86;101027.53;5130853;28;20054;-80
2022/12/25 13:26:44;;;;;;;0.95;0.52;;;;;;;11.49;76.28;101020.53;5117947;27;20103;-80
2022/12/25 13:29:34;;;;;;;0.10;0.10;;;;;;;11.55;76.05;101016.00;5110025;28;20024;-80
2022/12/25 13:32:03;;;;;;;0.55;0.55;;;;;;;11.48;76.14;101036.50;5110553;28;20469;-80
2022/12/25 13:37:17;;;;;;;0.20;0.20;;;;;;;11.50;75.89;101037.31;5132109;27;20338;-80
2022/12/25 13:40:02;;;;;;;0.10;0.10;;;;;;;11.54;76.10;101039.03;5131488;27;20485;-80
2022/12/25 13:42:31;;;;;;;0.10;0.10;;;;;;;11.49;75.80;101040.91;5131982;27;20515;-80
2022/12/25 13:47:39;;;;;;;0.30;0.30;;;;;;;11.49;75.75;101031.16;5116483;27;20193;-80
2022/12/25 13:50:19;;;;;;;0.10;0.10;;;;;;;11.54;76.12;101032.84;5112426;28;20040;-80
2022/12/25 13:52:45;;;;;;;0.50;0.50;;;;;;;11.50;76.54;101034.69;5111705;28;20111;-80
2022/12/25 14:02:59;;;;;;;0.10;0.10;;;;;;;11.55;76.38;101042.56;5120025;27;1178063;-80
2022/12/25 14:08:14;;;;;;;0.20;0.20;;;;;;;11.60;76.51;101038.00;5120098;27;20174;-80
2022/12/25 14:10:44;;;;;;;0.20;0.20;;;;;;;11.56;76.36;101026.59;5120753;28;20110;-80
2022/12/25 14:13:13;;;;;;;0.10;0.10;;;;;;;11.58;76.58;101038.06;5123743;28;20027;-80
2022/12/25 14:15:40;;;;;;;0.47;0.47;;;;;;;11.59;76.21;101036.25;5114322;28;20099;-80
2022/12/25 14:18:14;;;;;;;0.10;0.10;;;;;;;11.62;75.94;101025.59;5114194;28;20084;-80
2022/12/25 14:20:53;;;;;;;0.10;0.10;;;;;;;11.56;75.91;101026.59;5114097;28;20080;-80
2022/12/25 14:23:19;;;;;;;0.40;0.40;;;;;;;11.54;75.94;101031.06;5113762;28;20035;-80
2022/12/25 14:25:46;;;;;;;0.10;0.10;;;;;;;11.52;76.26;101022.25;5112812;27;20032;-80